createdAt,value
2022-08-22T00:01:31.967Z,99.90
2022-08-22T00:02:45.363Z,1.00
2022-08-22T00:02:45.719Z,87.80
2022-08-22T00:02:52.694Z,1.00
2022-08-22T00:02:52.803Z,1.00
2022-08-22T00:02:59.341Z,99.90
2022-08-22T00:03:00.233Z,99.90
2022-08-22T00:03:11.844Z,99.90
2022-08-22T00:04:10.541Z,99.90
2022-08-22T00:06:47.980Z,99.90
2022-08-22T00:09:29.763Z,99.90
2022-08-22T00:12:14.595Z,99.90
2022-08-22T00:14:49.314Z,99.90
2022-08-22T00:17:36.224Z,99.90
2022-08-22T00:20:13.093Z,99.90
2022-08-22T00:22:47.692Z,99.90
2022-08-22T00:25:46.420Z,99.90
2022-08-22T00:28:18.396Z,99.90
2022-08-22T00:30:54.270Z,99.90
2022-08-22T00:33:34.023Z,99.90
2022-08-22T00:36:16.266Z,99.90
2022-08-22T00:38:49.635Z,99.90
2022-08-22T00:41:31.903Z,99.90
2022-08-22T00:44:19.629Z,99.90
2022-08-22T00:47:02.920Z,99.90
2022-08-22T00:50:03.436Z,99.90
2022-08-22T00:52:55.059Z,99.90
2022-08-22T00:55:55.035Z,99.90
2022-08-22T00:58:55.929Z,99.90
2022-08-22T01:01:33.602Z,99.90
2022-08-22T01:04:28.733Z,99.90
2022-08-22T01:07:12.394Z,99.90
2022-08-22T01:09:50.861Z,99.90
2022-08-22T01:12:46.966Z,99.90
2022-08-22T01:15:20.722Z,99.90
2022-08-22T01:18:44.881Z,99.90
2022-08-22T01:21:38.392Z,99.90
2022-08-22T01:25:02.593Z,99.90
2022-08-22T01:28:04.419Z,99.90
2022-08-22T01:31:14.175Z,99.90
2022-08-22T01:34:14.041Z,99.90
2022-08-22T01:37:01.674Z,99.90
2022-08-22T01:40:00.478Z,99.90
2022-08-22T01:42:45.228Z,99.90
2022-08-22T01:45:32.355Z,99.90
2022-08-22T01:48:09.571Z,99.90
2022-08-22T01:50:44.773Z,99.90
2022-08-22T01:53:22.725Z,99.90
2022-08-22T01:56:01.650Z,99.90
2022-08-22T01:58:32.564Z,99.90
2022-08-22T02:01:13.956Z,99.90
2022-08-22T02:03:53.423Z,99.90
2022-08-22T02:06:32.364Z,99.90
2022-08-22T02:09:05.787Z,99.90
2022-08-22T02:11:41.690Z,99.90
2022-08-22T02:14:24.333Z,99.90
2022-08-22T02:16:58.379Z,99.90
2022-08-22T02:19:37.858Z,99.90
2022-08-22T02:22:23.526Z,99.90
2022-08-22T02:25:00.790Z,99.90
2022-08-22T02:27:38.267Z,99.90
2022-08-22T02:30:10.418Z,99.90
2022-08-22T02:32:52.882Z,99.90
2022-08-22T02:35:27.025Z,99.90
2022-08-22T02:38:16.149Z,99.90
2022-08-22T02:40:52.719Z,99.90
2022-08-22T02:43:25.141Z,99.90
2022-08-22T02:45:57.009Z,99.90
2022-08-22T02:48:37.391Z,99.90
2022-08-22T02:51:11.557Z,99.90
2022-08-22T02:53:49.868Z,99.90
2022-08-22T02:56:22.610Z,99.90
2022-08-22T02:58:57.307Z,99.90
2022-08-22T03:01:40.132Z,99.90
2022-08-22T03:04:46.712Z,99.90
2022-08-22T03:07:26.479Z,99.90
2022-08-22T03:10:06.532Z,99.90
2022-08-22T03:12:42.689Z,99.90
2022-08-22T03:15:19.180Z,99.90
2022-08-22T03:17:52.013Z,99.90
2022-08-22T03:20:37.042Z,99.90
2022-08-22T03:23:12.517Z,99.90
2022-08-22T03:25:48.334Z,99.90
2022-08-22T03:28:22.762Z,99.90
2022-08-22T03:30:59.438Z,99.90
2022-08-22T03:33:29.656Z,99.90
2022-08-22T03:36:10.531Z,99.90
2022-08-22T03:38:53.350Z,99.90
2022-08-22T03:41:51.259Z,99.90
2022-08-22T03:44:55.283Z,99.90
2022-08-22T03:47:56.151Z,99.90
2022-08-22T03:50:54.569Z,99.90
2022-08-22T03:53:48.042Z,99.90
2022-08-22T03:56:58.911Z,99.90
2022-08-22T04:00:11.856Z,99.90
2022-08-22T04:03:21.847Z,99.90
2022-08-22T04:06:21.510Z,99.90
2022-08-22T04:09:18.134Z,99.90
2022-08-22T04:12:17.502Z,99.90
2022-08-22T04:15:16.474Z,99.90
2022-08-22T04:18:03.389Z,99.90
2022-08-22T04:21:02.302Z,99.90
2022-08-22T04:23:50.396Z,99.90
2022-08-22T04:26:28.679Z,99.90
2022-08-22T04:29:03.944Z,99.90
2022-08-22T04:31:37.856Z,99.90
2022-08-22T04:34:15.293Z,99.90
2022-08-22T04:36:50.065Z,99.90
2022-08-22T04:39:23.402Z,99.90
2022-08-22T04:42:06.942Z,99.90
2022-08-22T04:44:51.514Z,99.90
2022-08-22T04:47:30.545Z,99.90
2022-08-22T04:50:04.382Z,99.90
2022-08-22T04:52:47.531Z,99.90
2022-08-22T04:55:25.467Z,99.90
2022-08-22T04:58:06.408Z,99.90
2022-08-22T05:00:40.781Z,99.90
2022-08-22T05:03:15.838Z,99.90
2022-08-22T05:05:45.384Z,99.90
2022-08-22T05:08:19.690Z,99.90
2022-08-22T05:10:51.846Z,99.90
2022-08-22T05:13:24.578Z,99.90
2022-08-22T05:15:56.743Z,99.90
2022-08-22T05:18:30.148Z,99.90
2022-08-22T05:21:02.220Z,99.90
2022-08-22T05:23:35.212Z,99.90
2022-08-22T05:26:06.261Z,99.90
2022-08-22T05:28:37.181Z,99.90
2022-08-22T05:31:09.805Z,99.90
2022-08-22T05:33:44.265Z,99.90
2022-08-22T05:36:17.101Z,99.90
2022-08-22T05:38:50.401Z,99.90
2022-08-22T05:41:23.743Z,99.90
2022-08-22T05:43:53.798Z,99.90
2022-08-22T05:46:27.069Z,99.90
2022-08-22T05:49:00.540Z,99.90
2022-08-22T05:51:36.528Z,99.90
2022-08-22T05:54:13.229Z,99.90
2022-08-22T05:56:45.099Z,99.90
2022-08-22T05:59:24.662Z,99.90
2022-08-22T06:02:01.965Z,99.90
2022-08-22T06:04:38.244Z,99.90
2022-08-22T06:07:12.932Z,99.90
2022-08-22T06:10:02.829Z,99.90
2022-08-22T06:12:35.389Z,99.90
2022-08-22T06:15:12.283Z,99.90
2022-08-22T06:17:45.400Z,99.90
2022-08-22T06:20:19.757Z,99.90
2022-08-22T06:22:53.654Z,99.90
2022-08-22T06:25:25.930Z,99.90
2022-08-22T06:27:54.686Z,99.90
2022-08-22T06:30:27.491Z,99.90
2022-08-22T06:33:01.445Z,99.90
2022-08-22T06:35:54.722Z,99.90
2022-08-22T06:38:26.381Z,99.90
2022-08-22T06:40:55.665Z,99.90
2022-08-22T06:43:25.701Z,99.90
2022-08-22T06:45:54.494Z,99.90
2022-08-22T06:48:24.775Z,99.90
2022-08-22T06:50:58.561Z,99.90
2022-08-22T06:53:29.327Z,99.90
2022-08-22T06:56:02.616Z,99.90
2022-08-22T06:58:35.116Z,99.90
2022-08-22T07:01:12.183Z,99.90
2022-08-22T07:03:45.918Z,99.90
2022-08-22T07:06:18.358Z,99.90
2022-08-22T07:08:47.504Z,99.90
2022-08-22T07:11:21.740Z,99.90
2022-08-22T07:13:54.789Z,99.90
2022-08-22T07:16:31.065Z,99.90
2022-08-22T07:18:59.891Z,99.90
2022-08-22T07:21:36.200Z,99.90
2022-08-22T07:24:05.132Z,99.90
2022-08-22T07:26:40.032Z,99.90
2022-08-22T07:29:14.210Z,99.90
2022-08-22T07:31:52.080Z,99.90
2022-08-22T07:34:33.596Z,99.90
2022-08-22T07:37:09.171Z,99.90
2022-08-22T07:39:44.928Z,99.90
2022-08-22T07:42:17.234Z,99.90
2022-08-22T07:44:53.358Z,99.90
2022-08-22T07:47:26.767Z,99.90
2022-08-22T07:49:59.699Z,99.90
2022-08-22T07:52:37.335Z,99.90
2022-08-22T07:55:14.023Z,99.90
2022-08-22T07:57:47.455Z,99.90
2022-08-22T08:00:18.939Z,99.90
2022-08-22T08:02:50.909Z,99.90
2022-08-22T08:05:21.126Z,99.90
2022-08-22T08:07:52.973Z,99.90
2022-08-22T08:10:26.710Z,99.90
2022-08-22T08:13:02.486Z,99.90
2022-08-22T08:15:34.304Z,99.90
2022-08-22T08:18:07.046Z,99.90
2022-08-22T08:20:37.102Z,99.90
2022-08-22T08:23:10.337Z,99.90
2022-08-22T08:25:56.893Z,99.90
2022-08-22T08:28:37.672Z,99.90
2022-08-22T08:31:10.936Z,99.90
2022-08-22T08:33:42.616Z,99.90
2022-08-22T08:36:26.402Z,99.90
2022-08-22T08:39:03.352Z,99.90
2022-08-22T08:42:06.075Z,99.90
2022-08-22T08:44:41.531Z,99.90
2022-08-22T08:47:33.749Z,99.90
2022-08-22T08:50:29.055Z,99.90
2022-08-22T08:53:24.283Z,99.90
2022-08-22T08:56:00.153Z,99.90
2022-08-22T08:58:35.332Z,99.90
2022-08-22T09:01:21.943Z,99.90
2022-08-22T09:04:37.551Z,99.90
2022-08-22T09:07:37.236Z,99.90
2022-08-22T09:10:27.346Z,92.60
2022-08-22T09:13:41.471Z,98.40
2022-08-22T09:16:25.171Z,99.90
2022-08-22T09:19:20.554Z,99.90
2022-08-22T09:22:17.807Z,99.90
2022-08-22T09:25:12.153Z,99.90
2022-08-22T09:27:54.516Z,70.00
2022-08-22T09:30:31.362Z,71.10
2022-08-22T09:33:04.509Z,99.90
2022-08-22T09:35:45.623Z,99.90
2022-08-22T09:38:28.972Z,57.00
2022-08-22T09:41:08.485Z,99.90
2022-08-22T09:43:44.157Z,1.00
2022-08-22T09:46:21.964Z,4.20
2022-08-22T09:49:06.489Z,1.00
2022-08-22T09:51:43.202Z,99.90
2022-08-22T09:54:31.639Z,99.90
2022-08-22T09:57:16.176Z,1.00
2022-08-22T10:00:13.110Z,1.00
2022-08-22T10:02:51.635Z,94.80
2022-08-22T10:05:40.894Z,1.00
2022-08-22T10:08:20.929Z,1.00
2022-08-22T10:11:07.260Z,1.00
2022-08-22T10:13:57.856Z,1.00
2022-08-22T10:17:00.590Z,99.90
2022-08-22T10:19:36.543Z,1.00
2022-08-22T10:22:30.379Z,1.00
2022-08-22T10:25:32.046Z,1.00
2022-08-22T10:28:11.973Z,1.00
2022-08-22T10:30:50.137Z,99.90
2022-08-22T10:33:29.085Z,99.90
2022-08-22T10:36:05.371Z,1.00
2022-08-22T10:38:46.540Z,99.90
2022-08-22T10:41:23.110Z,99.90
2022-08-22T10:44:01.512Z,1.00
2022-08-22T10:46:37.740Z,1.00
2022-08-22T10:49:14.313Z,1.00
2022-08-22T10:51:50.311Z,1.00
2022-08-22T10:54:47.207Z,99.90
2022-08-22T10:57:32.338Z,99.90
2022-08-22T11:00:09.461Z,99.90
2022-08-22T11:02:42.247Z,99.90
2022-08-22T11:05:33.457Z,1.00
2022-08-22T11:08:39.513Z,1.00
2022-08-22T11:11:20.506Z,1.00
2022-08-22T11:14:06.783Z,99.90
2022-08-22T11:16:47.922Z,1.00
2022-08-22T11:19:42.452Z,29.20
2022-08-22T11:22:30.400Z,94.50
2022-08-22T11:25:41.177Z,47.00
2022-08-22T11:28:38.813Z,1.00
2022-08-22T11:31:19.744Z,1.00
2022-08-22T11:33:55.224Z,76.20
2022-08-22T11:36:35.798Z,1.00
2022-08-22T11:39:18.665Z,1.00
2022-08-22T11:41:58.530Z,1.00
2022-08-22T11:44:31.199Z,1.00
2022-08-22T11:47:02.784Z,1.00
2022-08-22T11:49:39.499Z,99.90
2022-08-22T11:52:41.382Z,1.00
2022-08-22T11:55:21.545Z,99.90
2022-08-22T11:57:53.719Z,1.00
2022-08-22T12:00:30.800Z,99.90
2022-08-22T12:03:19.047Z,99.90
2022-08-22T12:05:55.831Z,1.00
2022-08-22T12:08:46.268Z,99.90
2022-08-22T12:11:20.575Z,99.90
2022-08-22T12:14:06.165Z,99.90
2022-08-22T12:16:42.657Z,99.90
2022-08-22T12:19:27.928Z,99.90
2022-08-22T12:22:33.335Z,99.90
2022-08-22T12:25:12.838Z,99.90
2022-08-22T12:27:55.372Z,99.90
2022-08-22T12:30:34.307Z,99.90
2022-08-22T12:33:24.913Z,99.90
2022-08-22T12:36:18.454Z,99.90
2022-08-22T12:39:08.311Z,99.90
2022-08-22T12:41:57.838Z,99.90
2022-08-22T12:44:37.920Z,99.90
2022-08-22T12:47:32.027Z,99.90
2022-08-22T12:50:20.335Z,99.90
2022-08-22T12:53:09.399Z,99.90
2022-08-22T12:55:56.923Z,99.90
2022-08-22T12:58:42.556Z,99.90
2022-08-22T13:01:13.210Z,99.90
2022-08-22T13:03:47.947Z,99.90
2022-08-22T13:06:48.588Z,99.90
2022-08-22T13:09:20.782Z,99.90
2022-08-22T13:12:02.291Z,99.90
2022-08-22T13:14:34.044Z,99.90
2022-08-22T13:17:10.709Z,99.90
2022-08-22T13:20:01.979Z,99.90
2022-08-22T13:22:33.851Z,99.90
2022-08-22T13:25:08.650Z,99.90
2022-08-22T13:27:50.664Z,99.90
2022-08-22T13:30:37.717Z,99.90
2022-08-22T13:33:10.095Z,99.90
2022-08-22T13:35:51.883Z,99.90
2022-08-22T13:38:26.390Z,99.90
2022-08-22T13:40:56.837Z,99.90
2022-08-22T13:43:29.742Z,99.90
2022-08-22T13:46:01.982Z,99.90
2022-08-22T13:48:46.849Z,99.90
2022-08-22T13:51:24.842Z,99.90
2022-08-22T13:54:02.215Z,99.90
2022-08-22T13:56:38.060Z,99.90
2022-08-22T13:59:25.312Z,99.90
2022-08-22T14:02:07.629Z,99.90
2022-08-22T14:04:48.655Z,99.90
2022-08-22T14:07:34.530Z,99.90
2022-08-22T14:10:14.800Z,99.90
2022-08-22T14:13:05.205Z,99.90
2022-08-22T14:15:45.960Z,99.90
2022-08-22T14:18:18.611Z,99.90
2022-08-22T14:20:48.215Z,99.90
2022-08-22T14:23:27.160Z,99.90
2022-08-22T14:25:56.458Z,99.90
2022-08-22T14:28:30.357Z,99.90
2022-08-22T14:31:03.207Z,99.90
2022-08-22T14:33:36.226Z,99.90
2022-08-22T14:36:17.457Z,99.90
2022-08-22T14:38:53.327Z,99.90
2022-08-22T14:41:56.106Z,99.90
2022-08-22T14:44:23.335Z,99.90
2022-08-22T14:46:54.836Z,99.90
2022-08-22T14:49:31.650Z,99.90
2022-08-22T14:52:19.823Z,99.90
2022-08-22T14:54:51.018Z,99.90
2022-08-22T14:57:20.388Z,99.90
2022-08-22T14:59:52.221Z,99.90
2022-08-22T15:02:27.672Z,99.90
2022-08-22T15:04:57.715Z,99.90
2022-08-22T15:07:28.247Z,99.90
2022-08-22T15:10:06.146Z,99.90
2022-08-22T15:12:38.414Z,99.90
2022-08-22T15:15:11.363Z,99.90
2022-08-22T15:17:44.842Z,99.90
2022-08-22T15:20:28.683Z,99.90
2022-08-22T15:23:00.435Z,99.90
2022-08-22T15:25:34.403Z,99.90
2022-08-22T15:28:06.675Z,99.90
2022-08-22T15:30:44.342Z,99.90
2022-08-22T15:33:16.918Z,99.90
2022-08-22T15:35:48.445Z,99.90
2022-08-22T15:38:29.191Z,99.90
2022-08-22T15:41:39.864Z,99.90
2022-08-22T15:44:31.012Z,99.90
2022-08-22T15:47:11.584Z,99.90
2022-08-22T15:49:55.516Z,99.90
2022-08-22T15:52:29.263Z,99.90
2022-08-22T15:55:25.421Z,99.90
2022-08-22T15:58:04.734Z,99.90
2022-08-22T16:00:43.401Z,99.90
2022-08-22T16:03:24.456Z,99.90
2022-08-22T16:05:55.994Z,99.90
2022-08-22T16:08:29.651Z,99.90
2022-08-22T16:11:32.261Z,99.90
2022-08-22T16:14:21.448Z,99.90
2022-08-22T16:17:02.042Z,99.90
2022-08-22T16:19:31.970Z,99.90
2022-08-22T16:22:14.547Z,99.90
2022-08-22T16:25:14.267Z,99.90
2022-08-22T16:27:55.446Z,99.90
2022-08-22T16:30:36.654Z,99.90
2022-08-22T16:33:05.446Z,99.90
2022-08-22T16:36:22.966Z,99.90
2022-08-22T16:38:53.977Z,99.90
2022-08-22T16:41:40.317Z,99.90
2022-08-22T16:44:41.358Z,99.90
2022-08-22T16:47:18.225Z,99.90
2022-08-22T16:50:00.337Z,99.90
2022-08-22T16:53:12.361Z,99.90
2022-08-22T16:56:03.127Z,99.90
2022-08-22T16:59:22.951Z,99.90
2022-08-22T17:02:19.423Z,99.90
2022-08-22T17:05:00.632Z,99.90
2022-08-22T17:07:40.930Z,99.90
2022-08-22T17:10:30.694Z,99.90
2022-08-22T17:13:14.260Z,99.90
2022-08-22T17:15:56.091Z,99.90
2022-08-22T17:18:43.795Z,99.90
2022-08-22T17:21:17.705Z,99.90
2022-08-22T17:23:55.333Z,99.90
2022-08-22T17:26:36.013Z,99.90
2022-08-22T17:29:12.683Z,99.90
2022-08-22T17:31:51.362Z,99.90
2022-08-22T17:34:32.256Z,99.90
2022-08-22T17:37:09.247Z,99.90
2022-08-22T17:39:55.557Z,99.90
2022-08-22T17:43:03.514Z,99.90
2022-08-22T17:45:50.198Z,99.90
2022-08-22T17:48:23.209Z,99.90
2022-08-22T17:50:56.095Z,99.90
2022-08-22T17:53:31.358Z,99.90
2022-08-22T17:56:07.831Z,99.90
2022-08-22T17:58:45.038Z,99.90
2022-08-22T18:01:15.866Z,99.90
2022-08-22T18:03:52.478Z,99.90
2022-08-22T18:06:24.785Z,99.90
2022-08-22T18:09:13.639Z,99.90
2022-08-22T18:11:47.338Z,99.90
2022-08-22T18:14:28.390Z,99.90
2022-08-22T18:16:59.090Z,99.90
2022-08-22T18:19:40.959Z,99.90
2022-08-22T18:22:18.957Z,99.90
2022-08-22T18:24:52.355Z,99.90
2022-08-22T18:27:34.416Z,99.90
2022-08-22T18:30:07.537Z,99.90
2022-08-22T18:32:48.446Z,99.90
2022-08-22T18:35:22.246Z,99.90
2022-08-22T18:37:59.161Z,99.90
2022-08-22T18:40:33.336Z,99.90
2022-08-22T18:43:14.373Z,99.90
2022-08-22T18:46:03.302Z,99.90
2022-08-22T18:48:54.477Z,99.90
2022-08-22T18:51:30.998Z,99.90
2022-08-22T18:54:26.819Z,99.90
2022-08-22T18:57:00.915Z,99.90
2022-08-22T18:59:47.594Z,99.90
2022-08-22T19:02:55.583Z,99.90
2022-08-22T19:05:43.440Z,99.90
2022-08-22T19:08:38.747Z,99.90
2022-08-22T19:11:20.809Z,99.90
2022-08-22T19:14:01.534Z,99.90
2022-08-22T19:17:15.041Z,99.90
2022-08-22T19:20:14.173Z,99.90
2022-08-22T19:22:42.686Z,99.90
2022-08-22T19:25:26.142Z,99.90
2022-08-22T19:28:26.827Z,99.90
2022-08-22T19:31:22.792Z,99.90
2022-08-22T19:34:11.530Z,99.90
2022-08-22T19:36:39.466Z,99.90
2022-08-22T19:39:09.403Z,99.90
2022-08-22T19:41:52.499Z,99.90
2022-08-22T19:44:43.170Z,99.90
2022-08-22T19:47:27.745Z,99.90
2022-08-22T19:50:02.015Z,99.90
2022-08-22T19:52:47.680Z,99.90
2022-08-22T19:55:23.368Z,99.90
2022-08-22T19:58:01.209Z,99.90
2022-08-22T20:00:52.792Z,99.90
2022-08-22T20:03:32.904Z,99.90
2022-08-22T20:06:13.778Z,1.00
2022-08-22T20:09:02.250Z,99.90
2022-08-22T20:11:39.881Z,1.00
2022-08-22T20:14:30.406Z,1.00
2022-08-22T20:17:04.589Z,1.00
2022-08-22T20:22:43.060Z,1.00
2022-08-22T20:25:41.828Z,1.00
2022-08-22T20:28:08.487Z,1.00
2022-08-22T20:30:41.469Z,1.00
2022-08-22T20:33:14.659Z,1.00
2022-08-22T20:35:52.925Z,1.00
2022-08-22T20:38:25.402Z,1.00
2022-08-22T20:41:03.749Z,1.00
2022-08-22T20:43:46.341Z,1.00
2022-08-22T20:46:26.702Z,1.00
2022-08-22T20:48:57.358Z,92.20
2022-08-22T20:51:29.198Z,1.00
2022-08-22T20:53:59.355Z,1.00
2022-08-22T20:56:35.861Z,1.00
2022-08-22T20:59:19.455Z,1.00
2022-08-22T21:01:48.679Z,99.90
2022-08-22T21:04:20.861Z,1.00
2022-08-22T21:06:48.696Z,10.00
2022-08-22T21:09:41.442Z,99.90
2022-08-22T21:12:11.426Z,99.90
2022-08-22T21:14:45.952Z,47.20
2022-08-22T21:17:23.037Z,1.00
2022-08-22T21:19:52.735Z,99.90
2022-08-22T21:22:29.002Z,1.00
2022-08-22T21:24:59.059Z,1.00
2022-08-22T21:27:32.137Z,87.00
2022-08-22T21:30:02.859Z,99.90
2022-08-22T21:32:35.054Z,1.00
2022-08-22T21:35:05.326Z,1.00
2022-08-22T21:37:38.561Z,1.00
2022-08-22T21:40:15.125Z,1.00
2022-08-22T21:42:45.894Z,1.00
2022-08-22T21:45:28.039Z,1.00
2022-08-22T21:47:56.679Z,1.00
2022-08-22T21:50:37.796Z,1.00
2022-08-22T21:53:11.796Z,1.00
2022-08-22T21:55:44.298Z,1.00
2022-08-22T21:58:37.003Z,3.90
2022-08-22T22:01:30.582Z,7.90
2022-08-22T22:04:00.841Z,1.00
2022-08-22T22:06:30.472Z,1.00
2022-08-22T22:08:58.789Z,2.70
2022-08-22T22:11:26.786Z,17.20
2022-08-22T22:13:55.217Z,34.10
2022-08-22T22:16:26.523Z,43.50
2022-08-22T22:18:55.065Z,47.00
2022-08-22T22:21:23.021Z,41.90
2022-08-22T22:23:52.500Z,6.40
2022-08-22T22:26:21.376Z,23.70
2022-08-22T22:28:50.142Z,47.30
2022-08-22T22:31:19.222Z,18.40
2022-08-22T22:33:47.403Z,22.30
2022-08-22T22:36:19.669Z,34.80
2022-08-22T22:38:47.760Z,1.00
2022-08-22T22:41:17.051Z,11.90
2022-08-22T22:43:44.962Z,18.00
2022-08-22T22:46:12.939Z,16.20
2022-08-22T22:48:40.870Z,23.70
2022-08-22T22:51:10.364Z,1.00
2022-08-22T22:53:42.650Z,1.00
2022-08-22T22:56:14.053Z,1.00
2022-08-22T22:58:46.035Z,1.00
2022-08-22T23:01:18.489Z,1.00
2022-08-22T23:03:47.241Z,1.00
2022-08-22T23:06:19.326Z,1.00
2022-08-22T23:08:47.518Z,1.00
2022-08-22T23:11:18.158Z,1.00
2022-08-22T23:13:48.450Z,24.30
2022-08-22T23:16:19.350Z,56.00
2022-08-22T23:18:47.711Z,41.00
2022-08-22T23:21:18.430Z,1.00
2022-08-22T23:23:47.541Z,1.00
2022-08-22T23:26:16.102Z,1.00
2022-08-22T23:28:44.489Z,1.00
2022-08-22T23:31:18.289Z,1.00
2022-08-22T23:33:47.223Z,1.00
2022-08-22T23:36:19.678Z,1.00
2022-08-22T23:38:48.446Z,1.00
2022-08-22T23:41:18.653Z,1.00
2022-08-22T23:43:49.641Z,1.00
2022-08-22T23:46:21.118Z,1.00
2022-08-22T23:48:49.322Z,1.00
2022-08-22T23:51:23.080Z,1.00
2022-08-22T23:53:51.475Z,1.00
2022-08-22T23:56:21.306Z,1.00
2022-08-22T23:58:51.170Z,1.00
